^^
Station Historical Data
 
Daily Summary for November 15, 2018 Units:  English    Metric   Both
« Previous Day
Next Day »
Daily Weekly Monthly Yearly Custom
  Current: High: Low: Average:
Temperature: 39.7 °F TemperatureF °F 38.5 °F 38.8 °F
Dew Point: 27.9 °F DewpointF °F 26.2 °F 30.8 °F
Humidity: 62% Humidity% 58% 72%
Wind Speed: 0.0mph WindSpeedMPHmph 0.0mph 0.4mph
Wind Gust: 1.0mph WindSpeedGustMPHmph - -
WindCalm - - South
Pressure: 30.46 in PressureIn in 30.44 in -
Precipitation: 1.07 in      
Historical Graphs
 
 
Tabular Data for November 15, 2018
Time Temperature Dew Point Pressure Wind Wind Speed Wind Gust Humidity Rainfall Rate (Hourly)
TemperatureF °F DewpointF °F PressureIn in Calm     Humidity% HourlyPrecipIn in
00:04 39.6 °F 34.9 °F 30.66 in WNW 0.9 mph 2.0 mph 83% 0.12 in
00:09 39.6 °F 34.9 °F 30.65 in West 0.9 mph 3.0 mph 83% 0.11 in
00:14 39.6 °F 34.9 °F 30.65 in Calm   1.0 mph 83% 0.11 in
00:19 39.6 °F 34.5 °F 30.65 in Calm   1.0 mph 82% 0.11 in
00:24 39.6 °F 33.6 °F 30.66 in Calm     79% 0.11 in
00:29 39.4 °F 32.7 °F 30.66 in Calm   1.0 mph 77% 0.11 in
00:34 39.4 °F 32.5 °F 30.66 in Calm     76% 0.11 in
00:39 39.4 °F 32.7 °F 30.66 in ESE 0.9 mph 3.0 mph 77% 0.11 in
00:44 39.6 °F 33.6 °F 30.66 in Calm   1.0 mph 79% 0.11 in
00:49 39.6 °F 34.5 °F 30.66 in Calm   4.0 mph 82% 0.11 in
00:54 39.6 °F 34.2 °F 30.66 in NE 2.9 mph 3.0 mph 81% 0.12 in
00:59 39.6 °F 34.5 °F 30.66 in WNW 0.9 mph 3.0 mph 82% 0.12 in
01:04 39.6 °F 34.5 °F 30.66 in Calm   8.0 mph 82% 0.13 in
01:09 39.6 °F 35.1 °F 30.65 in ENE 2.0 mph 7.0 mph 84% 0.13 in
01:14 39.6 °F 35.1 °F 30.64 in WNW 2.9 mph 3.0 mph 84% 0.13 in
01:19 39.4 °F 34.9 °F 30.64 in WNW 2.0 mph 3.0 mph 84% 0.13 in
01:24 39.2 °F 35.1 °F 30.64 in WNW 4.9 mph 5.0 mph 85% 0.13 in
01:29 39.0 °F 34.5 °F 30.64 in NW 0.9 mph 7.0 mph 84% 0.14 in
01:34 38.8 °F 34.3 °F 30.63 in Calm   3.0 mph 84% 0.14 in
01:39 38.8 °F 34.3 °F 30.63 in Calm   5.0 mph 84% 0.15 in
01:44 38.8 °F 34.3 °F 30.63 in ESE 2.9 mph 4.0 mph 84% 0.15 in
01:49 38.8 °F 34.3 °F 30.62 in Calm   1.0 mph 84% 0.15 in
01:54 38.7 °F 34.0 °F 30.61 in East 2.0 mph 4.0 mph 83% 0.14 in
01:59 38.7 °F 33.6 °F 30.61 in Calm   2.0 mph 82% 0.15 in
02:04 38.7 °F 34.0 °F 30.61 in East 2.0 mph 3.0 mph 83% 0.15 in
02:09 38.7 °F 33.3 °F 30.60 in Calm   2.0 mph 81% 0.16 in
02:14 38.7 °F 33.3 °F 30.60 in Calm     81% 0.17 in
02:19 38.7 °F 32.7 °F 30.60 in Calm   2.0 mph 79% 0.17 in
02:24 38.8 °F 32.9 °F 30.60 in Calm   2.0 mph 79% 0.18 in
02:29 38.7 °F 33.3 °F 30.60 in Calm   5.0 mph 81% 0.18 in
02:34 38.8 °F 33.3 °F 30.60 in Calm   2.0 mph 80% 0.18 in
02:39 38.8 °F 32.9 °F 30.60 in Calm   2.0 mph 79% 0.18 in
02:44 39.0 °F 33.4 °F 30.60 in East 2.0 mph 5.0 mph 80% 0.18 in
02:49 39.0 °F 33.6 °F 30.60 in Calm   2.0 mph 81% 0.19 in
02:54 39.0 °F 34.0 °F 30.59 in WNW 0.9 mph 8.0 mph 82% 0.21 in
02:59 39.0 °F 34.0 °F 30.59 in Calm   3.0 mph 82% 0.20 in
03:04 38.8 °F 33.4 °F 30.59 in SE 0.9 mph 5.0 mph 81% 0.20 in
03:09 38.8 °F 33.4 °F 30.58 in Calm   2.0 mph 81% 0.19 in
03:14 38.8 °F 32.9 °F 30.57 in Calm     79% 0.19 in
03:19 38.8 °F 32.2 °F 30.57 in Calm   3.0 mph 77% 0.19 in
03:24 38.7 °F 32.0 °F 30.56 in Calm   1.0 mph 77% 0.19 in
03:29 38.7 °F 32.0 °F 30.56 in Calm     77% 0.18 in
03:34 38.7 °F 32.0 °F 30.56 in NE 0.9 mph 4.0 mph 77% 0.18 in
03:39 38.7 °F 32.0 °F 30.55 in Calm   3.0 mph 77% 0.17 in
03:44 38.7 °F 32.0 °F 30.55 in ESE 0.9 mph 1.0 mph 77% 0.16 in
03:49 38.5 °F 32.2 °F 30.55 in Calm   1.0 mph 78% 0.15 in
03:54 38.7 °F 32.0 °F 30.55 in Calm     77% 0.12 in
03:59 38.5 °F 31.3 °F 30.55 in Calm     75% 0.12 in
04:04 38.7 °F 31.1 °F 30.55 in Calm     74% 0.11 in
04:09 38.5 °F 30.9 °F 30.55 in Calm     74% 0.12 in
04:14 38.7 °F 30.7 °F 30.54 in Calm   1.0 mph 73% 0.11 in
04:19 38.7 °F 30.7 °F 30.53 in Calm   1.0 mph 73% 0.11 in
04:24 38.7 °F 30.4 °F 30.53 in Calm   1.0 mph 72% 0.11 in
04:29 38.7 °F 30.0 °F 30.53 in Calm     71% 0.11 in
04:34 38.7 °F 29.7 °F 30.52 in Calm     70% 0.11 in
04:39 38.8 °F 29.5 °F 30.52 in WNW 2.0 mph 3.0 mph 69% 0.11 in
04:44 39.0 °F 29.7 °F 30.52 in Calm   2.0 mph 69% 0.11 in
04:49 39.0 °F 30.4 °F 30.51 in Calm   1.0 mph 71% 0.12 in
04:54 39.2 °F 30.9 °F 30.51 in Calm     72% 0.14 in
04:59 39.2 °F 30.9 °F 30.51 in Calm   1.0 mph 72% 0.15 in
05:04 39.2 °F 30.2 °F 30.50 in WNW 0.9 mph 1.0 mph 70% 0.16 in
05:09 39.4 °F 30.0 °F 30.50 in Calm   1.0 mph 69% 0.16 in
05:14 39.6 °F 29.8 °F 30.50 in Calm     68% 0.16 in
05:19 39.4 °F 29.3 °F 30.49 in Calm   1.0 mph 67% 0.16 in
05:24 39.4 °F 28.9 °F 30.48 in Calm   1.0 mph 66% 0.15 in
05:29 39.2 °F 28.4 °F 30.47 in Calm     65% 0.16 in
05:34 39.2 °F 28.0 °F 30.46 in Calm     64% 0.17 in
05:39 39.4 °F 27.9 °F 30.46 in Calm     63% 0.17 in
05:44 39.4 °F 27.5 °F 30.46 in Calm     62% 0.18 in
05:49 39.4 °F 27.5 °F 30.47 in Calm   1.0 mph 62% 0.17 in
05:54 39.6 °F 27.1 °F 30.46 in Calm   1.0 mph 61% 0.15 in
05:59 39.6 °F 26.8 °F 30.46 in Calm   1.0 mph 60% 0.14 in
06:04 39.7 °F 27.0 °F 30.47 in Calm   1.0 mph 60% 0.13 in
06:09 39.7 °F 26.6 °F 30.46 in ESE 0.9 mph 2.0 mph 59% 0.13 in
06:14 39.9 °F 26.8 °F 30.46 in Calm   1.0 mph 59% 0.14 in
06:19 39.9 °F 26.4 °F 30.45 in Calm   2.0 mph 58% 0.14 in
06:24 39.9 °F 26.4 °F 30.45 in Calm   1.0 mph 58% 0.16 in
06:29 39.7 °F 26.2 °F 30.45 in Calm   1.0 mph 58% 0.16 in
06:34 39.7 °F 26.6 °F 30.44 in Calm     59% 0.16 in
06:39 39.7 °F 26.6 °F 30.44 in Calm   1.0 mph 59% 0.16 in
06:44 39.7 °F 26.6 °F 30.44 in WNW 0.9 mph 2.0 mph 59% 0.17 in
06:49 39.7 °F 27.0 °F 30.44 in Calm     60% 0.17 in
06:54 39.7 °F 27.0 °F 30.44 in Calm   1.0 mph 60% 0.17 in
06:59 39.7 °F 27.3 °F 30.44 in ENE 0.9 mph 2.0 mph 61% 0.17 in
07:04 39.7 °F 27.9 °F 30.44 in Calm   2.0 mph 62% 0.17 in
07:09 39.6 °F 27.7 °F 30.45 in Calm   4.0 mph 62% 0.16 in
07:14 39.6 °F 27.7 °F 30.46 in Calm   2.0 mph 62% 0.14 in
07:19 39.6 °F 27.7 °F 30.46 in Calm   1.0 mph 62% 0.13 in
07:24 39.6 °F 27.7 °F 30.46 in ESE 0.9 mph 1.0 mph 62% 0.10 in
07:29 39.6 °F 27.7 °F 30.46 in Calm   2.0 mph 62% 0.09 in
07:34 39.7 °F 27.9 °F 30.46 in Calm   1.0 mph 62% 0.07 in
WheeWeather.com
Compliments of Weather Underground - 1.5 mb